Time;durP1;ratioP1;P1;durP2;ratioP2;P2;SDS_P1;SDS_P2;PMS_P1;PMS_P2;Temp;Humidity;BMP_temperature;BMP_pressure;BME280_temperature;BME280_humidity;BME280_pressure;Samples;Min_cycle;Max_cycle;Signal;HPM_P1;HPM_P2
2021/10/10 00:00:12;;;;;;;1.23;1.10;;;;;;;7.75;77.55;94440.31;5012437;28;20037;-70
2021/10/10 00:02:38;;;;;;;0.90;0.90;;;;;;;7.78;77.44;94438.97;5008018;28;20049;-70
2021/10/10 00:05:07;;;;;;;0.73;0.73;;;;;;;7.82;76.99;94429.41;5005399;28;20033;-72
2021/10/10 00:07:33;;;;;;;1.15;1.10;;;;;;;7.80;77.19;94428.88;5003377;28;20626;-71
2021/10/10 00:09:58;;;;;;;0.98;0.80;;;;;;;7.80;76.83;94416.44;5007662;28;20029;-70
2021/10/10 00:12:24;;;;;;;0.90;0.90;;;;;;;7.56;77.69;94423.50;5006977;28;20578;-69
2021/10/10 00:14:49;;;;;;;1.20;1.00;;;;;;;7.41;78.41;94403.25;5003957;28;20045;-69
2021/10/10 00:17:15;;;;;;;1.20;1.10;;;;;;;7.35;78.95;94420.25;5009777;28;20094;-72
2021/10/10 00:19:40;;;;;;;1.67;1.20;;;;;;;7.18;79.89;94417.22;5003377;28;21291;-72
2021/10/10 00:22:06;;;;;;;0.98;0.90;;;;;;;7.07;80.02;94415.72;5007471;28;20033;-69
2021/10/10 00:24:31;;;;;;;1.10;1.00;;;;;;;7.05;80.55;94415.19;5012160;28;20045;-72
2021/10/10 00:26:57;;;;;;;1.17;1.08;;;;;;;7.02;80.53;94413.13;5006452;28;20044;-72
2021/10/10 00:29:23;;;;;;;2.03;1.25;;;;;;;7.24;80.19;94421.38;5005763;28;20349;-72
2021/10/10 00:31:48;;;;;;;1.85;1.10;;;;;;;7.18;79.86;94396.06;5008230;28;20342;-71
2021/10/10 00:34:13;;;;;;;1.63;1.15;;;;;;;7.22;79.38;94389.94;5007182;28;20494;-70
2021/10/10 00:36:39;;;;;;;1.10;1.00;;;;;;;7.20;79.49;94399.22;5002781;28;20045;-72
2021/10/10 00:39:04;;;;;;;1.08;0.93;;;;;;;7.40;79.35;94388.44;5009234;28;20072;-70
2021/10/10 00:41:30;;;;;;;1.27;0.82;;;;;;;7.56;78.73;94397.84;5007842;28;20540;-71
2021/10/10 00:43:55;;;;;;;1.35;1.20;;;;;;;7.43;78.80;94393.22;5008106;28;20491;-69
2021/10/10 00:46:20;;;;;;;2.25;1.50;;;;;;;7.45;79.35;94401.63;5002386;28;20029;-70
2021/10/10 00:48:46;;;;;;;0.80;0.80;;;;;;;7.27;79.42;94392.53;5008006;28;20487;-70
2021/10/10 00:51:12;;;;;;;0.85;0.85;;;;;;;7.05;80.57;94384.25;5003700;28;20376;-69
2021/10/10 00:53:39;;;;;;;1.50;0.95;;;;;;;7.33;79.88;94388.00;5001478;28;20096;-70
2021/10/10 00:56:06;;;;;;;0.93;0.93;;;;;;;7.49;79.24;94402.66;5011272;28;20276;-70
2021/10/10 00:58:32;;;;;;;1.10;1.05;;;;;;;7.46;78.61;94379.41;5006946;28;20021;-71
2021/10/10 01:00:58;;;;;;;1.52;1.00;;;;;;;7.32;79.25;94370.53;5005005;28;20029;-71
2021/10/10 01:03:24;;;;;;;2.90;1.00;;;;;;;7.45;79.16;94393.69;5007569;28;20044;-73
2021/10/10 01:05:51;;;;;;;1.02;0.90;;;;;;;7.43;79.72;94387.91;5007542;28;20461;-70
2021/10/10 01:08:17;;;;;;;1.13;1.02;;;;;;;7.41;79.50;94392.69;5001221;28;20420;-70
2021/10/10 01:10:49;;;;;;;1.88;1.15;;;;;;;7.39;79.94;94394.00;5006331;28;20037;-72
2021/10/10 01:13:16;;;;;;;0.95;0.90;;;;;;;7.23;79.95;94361.63;5003356;28;20083;-71
2021/10/10 01:15:42;;;;;;;0.73;0.70;;;;;;;6.99;80.16;94360.78;5006146;28;20370;-73
2021/10/10 01:18:08;;;;;;;1.10;1.00;;;;;;;7.19;80.39;94361.38;4998726;28;20056;-70
2021/10/10 01:20:47;;;;;;;0.80;0.80;;;;;;;7.34;79.85;94389.56;5004226;28;20063;-69
2021/10/10 01:23:13;;;;;;;0.77;0.77;;;;;;;7.25;80.52;94391.22;5008648;28;20060;-70
2021/10/10 01:25:39;;;;;;;0.80;0.80;;;;;;;7.38;80.19;94385.31;5003279;28;20037;-72
2021/10/10 01:28:05;;;;;;;0.90;0.90;;;;;;;7.26;79.89;94376.94;5007457;28;20063;-70
2021/10/10 01:30:30;;;;;;;0.70;0.70;;;;;;;7.18;80.27;94356.38;5006263;28;20037;-70
2021/10/10 01:32:57;;;;;;;0.70;0.70;;;;;;;7.43;79.65;94387.13;4996878;28;20096;-70
2021/10/10 01:35:22;;;;;;;1.02;0.88;;;;;;;7.33;80.24;94385.34;4992716;28;20095;-69
2021/10/10 01:37:48;;;;;;;0.70;0.70;;;;;;;7.26;80.11;94388.31;5001471;28;20041;-70
2021/10/10 01:40:13;;;;;;;1.45;0.80;;;;;;;7.41;79.98;94381.31;5006904;28;20037;-72
2021/10/10 01:42:39;;;;;;;0.80;0.80;;;;;;;7.45;79.65;94396.34;5002946;28;20049;-70
2021/10/10 01:45:13;;;;;;;0.70;0.70;;;;;;;7.62;79.59;94399.38;5011624;28;20042;-70
2021/10/10 01:47:39;;;;;;;0.80;0.80;;;;;;;7.58;79.50;94400.97;5008597;28;20061;-73
2021/10/10 01:50:04;;;;;;;0.80;0.80;;;;;;;7.65;79.45;94384.78;5007285;28;20286;-71
2021/10/10 01:52:30;;;;;;;0.68;0.68;;;;;;;7.53;78.78;94379.09;5004744;28;20400;-71
2021/10/10 01:54:55;;;;;;;2.15;0.93;;;;;;;7.86;78.46;94401.28;5003719;28;20029;-69
2021/10/10 01:57:20;;;;;;;0.82;0.80;;;;;;;7.77;78.11;94384.44;5006141;28;20490;-70
2021/10/10 01:59:46;;;;;;;0.70;0.70;;;;;;;7.91;77.80;94380.03;5007556;28;20045;-70
2021/10/10 02:02:11;;;;;;;1.17;0.70;;;;;;;7.83;77.63;94394.66;5006638;28;20041;-70
2021/10/10 02:04:36;;;;;;;0.85;0.80;;;;;;;7.76;78.04;94404.81;5008501;28;20095;-71
2021/10/10 02:07:02;;;;;;;0.70;0.70;;;;;;;7.99;77.49;94413.84;5002305;28;20045;-70
2021/10/10 02:09:27;;;;;;;0.90;0.90;;;;;;;8.06;77.16;94417.75;5008066;28;20048;-72
2021/10/10 02:11:53;;;;;;;0.60;0.60;;;;;;;8.13;76.77;94420.03;5008148;28;20375;-70
2021/10/10 02:14:18;;;;;;;0.80;0.80;;;;;;;8.19;76.41;94420.75;5003896;28;20041;-69
2021/10/10 02:16:43;;;;;;;0.70;0.70;;;;;;;8.19;76.52;94418.91;5009847;28;20029;-71
2021/10/10 02:19:09;;;;;;;0.60;0.60;;;;;;;8.25;76.48;94420.44;5008759;28;20500;-71
2021/10/10 02:21:34;;;;;;;0.60;0.60;;;;;;;8.27;75.75;94417.47;5004217;28;20524;-71
2021/10/10 02:23:59;;;;;;;0.80;0.80;;;;;;;8.35;75.83;94401.75;5010017;28;20512;-70
2021/10/10 02:26:25;;;;;;;0.63;0.63;;;;;;;8.33;75.91;94408.41;5004988;28;20044;-70
2021/10/10 02:28:50;;;;;;;0.80;0.80;;;;;;;8.25;76.20;94387.84;5004661;28;20041;-71
2021/10/10 02:31:17;;;;;;;0.70;0.70;;;;;;;8.22;75.35;94404.31;5012322;28;20036;-70
2021/10/10 02:33:42;;;;;;;0.70;0.70;;;;;;;8.12;75.74;94392.75;5005885;28;20044;-70
2021/10/10 02:36:07;;;;;;;0.70;0.70;;;;;;;8.02;76.31;94400.81;5012625;28;20042;-72
2021/10/10 02:38:33;;;;;;;0.73;0.73;;;;;;;7.97;76.47;94402.75;4997174;28;20416;-70
2021/10/10 02:40:58;;;;;;;0.80;0.80;;;;;;;7.72;77.05;94379.94;5004123;28;20160;-69
2021/10/10 02:43:24;;;;;;;1.70;0.90;;;;;;;7.96;76.48;94380.78;5006164;28;20416;-71
2021/10/10 02:45:49;;;;;;;0.95;0.77;;;;;;;7.74;76.82;94383.13;5008906;28;20087;-69
2021/10/10 02:48:15;;;;;;;1.00;1.00;;;;;;;7.63;77.89;94387.69;5006968;28;20045;-70
2021/10/10 02:50:41;;;;;;;0.80;0.80;;;;;;;7.62;77.88;94375.53;5008581;28;20053;-72
2021/10/10 02:53:06;;;;;;;0.90;0.90;;;;;;;7.67;77.58;94385.28;5005638;28;20589;-70
2021/10/10 02:55:31;;;;;;;0.80;0.80;;;;;;;7.82;77.53;94379.09;5003489;28;20069;-71
2021/10/10 02:57:57;;;;;;;0.82;0.82;;;;;;;7.67;78.05;94372.06;5003197;28;20281;-70
2021/10/10 03:00:22;;;;;;;0.90;0.90;;;;;;;7.64;77.79;94360.16;5009303;28;20392;-71
2021/10/10 03:02:48;;;;;;;0.80;0.80;;;;;;;7.81;77.82;94373.00;5009634;28;20651;-71
2021/10/10 03:05:13;;;;;;;0.80;0.80;;;;;;;7.67;77.86;94380.00;5007855;28;20100;-71
2021/10/10 03:07:39;;;;;;;1.10;1.00;;;;;;;7.60;78.08;94367.09;5010788;28;20049;-72
2021/10/10 03:10:06;;;;;;;0.95;0.95;;;;;;;7.66;77.96;94379.22;5003964;28;20404;-72
2021/10/10 03:12:31;;;;;;;1.17;1.10;;;;;;;7.79;78.08;94384.91;5005395;28;20048;-71
2021/10/10 03:14:56;;;;;;;1.13;1.02;;;;;;;7.58;77.67;94366.56;5003233;28;20038;-71
2021/10/10 03:17:22;;;;;;;0.93;0.93;;;;;;;7.78;77.81;94383.38;5009525;28;20130;-72
2021/10/10 03:19:47;;;;;;;1.25;1.13;;;;;;;7.76;77.15;94381.00;5001626;28;20863;-71
2021/10/10 03:22:13;;;;;;;1.20;1.10;;;;;;;7.80;77.29;94391.81;5004198;28;20636;-70
2021/10/10 03:24:38;;;;;;;1.55;1.40;;;;;;;7.76;77.41;94391.56;5008377;28;20046;-73
2021/10/10 03:27:03;;;;;;;1.10;1.00;;;;;;;7.85;77.39;94399.69;5004694;28;20060;-71
2021/10/10 03:29:29;;;;;;;1.00;0.90;;;;;;;7.52;77.59;94378.28;5009922;28;20041;-71
2021/10/10 03:31:54;;;;;;;1.55;1.20;;;;;;;7.58;77.91;94384.31;4995077;28;20372;-70
2021/10/10 03:34:19;;;;;;;1.05;0.95;;;;;;;7.71;77.63;94405.63;5014128;28;20388;-72
2021/10/10 03:36:45;;;;;;;1.52;1.27;;;;;;;7.73;77.17;94384.19;5004554;28;20052;-72
2021/10/10 03:39:10;;;;;;;1.42;1.02;;;;;;;7.80;77.21;94392.59;5012439;28;20115;-72
2021/10/10 03:41:36;;;;;;;1.05;0.95;;;;;;;7.43;77.37;94334.97;5012060;28;20045;-71
2021/10/10 03:44:01;;;;;;;1.33;1.10;;;;;;;7.83;77.02;94402.59;5007437;28;20863;-72
2021/10/10 03:46:26;;;;;;;1.35;1.00;;;;;;;7.80;77.79;94394.44;5010900;28;20117;-71
2021/10/10 03:48:52;;;;;;;1.30;1.15;;;;;;;7.56;77.85;94376.66;5005147;28;20143;-73
2021/10/10 03:51:18;;;;;;;1.30;1.10;;;;;;;7.66;77.33;94381.84;5007086;28;20140;-73
2021/10/10 03:56:09;;;;;;;1.25;1.15;;;;;;;7.83;77.11;94391.22;5012773;28;20099;-72
2021/10/10 03:58:38;;;;;;;1.30;1.10;;;;;;;7.83;77.17;94388.56;5007789;28;20579;-70
2021/10/10 04:01:03;;;;;;;1.45;1.05;;;;;;;7.88;76.80;94372.63;5012344;28;20031;-71
2021/10/10 04:03:29;;;;;;;1.10;1.00;;;;;;;8.18;76.28;94392.69;5011245;28;23717;-71
2021/10/10 04:05:54;;;;;;;1.40;1.10;;;;;;;8.13;75.44;94369.69;5006707;28;20037;-72
2021/10/10 04:08:21;;;;;;;1.15;0.90;;;;;;;8.24;75.21;94386.25;5008746;28;20044;-73
2021/10/10 04:10:47;;;;;;;1.35;0.90;;;;;;;8.11;75.17;94387.75;5013643;28;20021;-70
2021/10/10 04:13:12;;;;;;;0.95;0.95;;;;;;;8.12;75.84;94391.94;5009124;28;20483;-73
2021/10/10 04:15:38;;;;;;;0.80;0.80;;;;;;;8.05;76.18;94386.22;5008448;28;20195;-69
2021/10/10 04:18:03;;;;;;;1.17;1.08;;;;;;;7.97;76.30;94386.84;5014589;28;20547;-70
2021/10/10 04:20:29;;;;;;;1.42;1.33;;;;;;;7.86;76.73;94388.81;5003682;28;20056;-71
2021/10/10 04:22:54;;;;;;;1.35;1.02;;;;;;;7.81;76.85;94388.09;5009580;28;20458;-70
2021/10/10 04:25:20;;;;;;;0.80;0.80;;;;;;;7.86;76.32;94374.78;5011444;28;20313;-69
2021/10/10 04:27:45;;;;;;;1.10;1.00;;;;;;;7.80;77.06;94397.88;5004470;28;20059;-70
2021/10/10 04:30:13;;;;;;;1.10;1.00;;;;;;;7.95;76.77;94375.75;5016184;28;20365;-72
2021/10/10 04:32:40;;;;;;;1.17;1.05;;;;;;;8.04;76.40;94398.69;5003912;28;20579;-69
2021/10/10 04:35:06;;;;;;;1.00;0.90;;;;;;;8.24;76.46;94402.16;5008249;28;20132;-70
2021/10/10 04:37:31;;;;;;;0.70;0.70;;;;;;;8.22;76.17;94399.78;5005178;28;20031;-71
2021/10/10 04:39:57;;;;;;;0.88;0.88;;;;;;;8.07;75.87;94374.25;5010051;28;20515;-70
2021/10/10 04:42:22;;;;;;;0.82;0.82;;;;;;;8.11;76.16;94387.75;5010458;28;20064;-69
2021/10/10 04:44:47;;;;;;;0.77;0.77;;;;;;;8.20;75.88;94386.03;5005823;28;20579;-71
2021/10/10 04:47:13;;;;;;;0.80;0.80;;;;;;;8.19;75.34;94384.47;5003367;28;20041;-69
2021/10/10 04:49:38;;;;;;;0.85;0.85;;;;;;;8.20;75.69;94394.00;5010760;28;20041;-69
2021/10/10 04:52:04;;;;;;;0.80;0.80;;;;;;;8.33;75.58;94400.44;5009425;28;20032;-70
2021/10/10 04:54:30;;;;;;;0.90;0.90;;;;;;;8.39;74.94;94402.75;5006616;28;20440;-69
2021/10/10 04:56:56;;;;;;;0.80;0.80;;;;;;;8.18;74.49;94340.47;4999919;28;20168;-73
2021/10/10 04:59:22;;;;;;;0.70;0.70;;;;;;;8.49;74.84;94378.00;5014377;28;20042;-72
2021/10/10 05:01:47;;;;;;;2.15;0.70;;;;;;;8.53;74.87;94394.91;5005026;28;20531;-70
2021/10/10 05:04:13;;;;;;;1.45;0.90;;;;;;;8.44;75.25;94392.09;5015212;28;20104;-71
2021/10/10 05:06:38;;;;;;;0.73;0.73;;;;;;;8.37;75.46;94378.41;5001184;28;20782;-70
2021/10/10 05:09:03;;;;;;;0.90;0.90;;;;;;;8.34;75.74;94392.22;5007069;28;20057;-71
2021/10/10 05:11:29;;;;;;;0.98;0.90;;;;;;;8.18;76.25;94382.88;5007983;28;20048;-71
2021/10/10 05:13:54;;;;;;;1.05;0.82;;;;;;;8.23;76.61;94390.78;5007568;28;20395;-70
2021/10/10 05:16:19;;;;;;;0.80;0.80;;;;;;;8.17;76.51;94386.59;5010565;28;20117;-71
2021/10/10 05:18:45;;;;;;;1.00;0.80;;;;;;;8.32;76.74;94402.31;5005823;28;20088;-71
2021/10/10 05:21:10;;;;;;;1.00;0.90;;;;;;;7.99;77.37;94390.78;5012481;28;20053;-72
2021/10/10 05:23:36;;;;;;;1.60;1.45;;;;;;;8.23;76.92;94382.81;5004920;28;20051;-73
2021/10/10 05:26:02;;;;;;;0.70;0.70;;;;;;;8.28;76.51;94401.31;5007943;28;20514;-70
2021/10/10 05:28:27;;;;;;;1.70;0.80;;;;;;;8.39;76.73;94416.03;5010592;28;20803;-72
2021/10/10 05:30:52;;;;;;;0.65;0.65;;;;;;;8.29;76.72;94402.88;5004205;28;20048;-71
2021/10/10 05:33:21;;;;;;;0.77;0.77;;;;;;;8.13;76.99;94386.38;5010319;28;20033;-71
2021/10/10 05:35:46;;;;;;;0.73;0.70;;;;;;;8.08;76.75;94378.50;5006433;28;20104;-71
2021/10/10 05:38:12;;;;;;;1.15;0.90;;;;;;;8.26;76.42;94406.13;5004220;28;20555;-74
2021/10/10 05:40:38;;;;;;;3.85;1.00;;;;;;;8.18;76.68;94366.19;5002270;28;20913;-70
2021/10/10 05:43:04;;;;;;;1.10;0.80;;;;;;;8.45;75.74;94404.28;4999798;28;20021;-71
2021/10/10 05:45:29;;;;;;;0.73;0.73;;;;;;;8.35;76.58;94415.00;5003410;28;20037;-71
2021/10/10 05:47:54;;;;;;;0.60;0.60;;;;;;;8.26;76.56;94402.69;5005488;28;21836;-71
2021/10/10 05:50:20;;;;;;;1.55;0.70;;;;;;;8.07;77.23;94418.53;5010746;28;20033;-71
2021/10/10 05:52:45;;;;;;;1.60;0.80;;;;;;;8.30;76.88;94417.72;5005148;28;20025;-73
2021/10/10 05:55:14;;;;;;;3.30;1.00;;;;;;;8.39;76.74;94418.66;5009617;28;20104;-73
2021/10/10 05:57:46;;;;;;;0.88;0.80;;;;;;;8.32;76.45;94399.66;5007456;28;20045;-71
2021/10/10 06:00:14;;;;;;;0.85;0.85;;;;;;;8.21;77.08;94398.22;5012474;28;20128;-71
2021/10/10 06:02:41;;;;;;;1.88;0.70;;;;;;;8.30;77.21;94411.63;5007134;28;20132;-71
2021/10/10 06:05:08;;;;;;;0.88;0.82;;;;;;;8.20;77.44;94417.84;5007075;28;20042;-72
2021/10/10 06:07:34;;;;;;;0.77;0.77;;;;;;;8.04;77.45;94421.72;5007041;28;20090;-71
2021/10/10 06:09:59;;;;;;;0.77;0.77;;;;;;;8.08;77.61;94425.38;5004388;28;20400;-73
2021/10/10 06:12:25;;;;;;;1.58;1.40;;;;;;;8.15;77.37;94415.25;5002118;28;20118;-71
2021/10/10 06:14:51;;;;;;;0.90;0.90;;;;;;;8.03;77.49;94409.53;5006351;28;20041;-71
2021/10/10 06:17:18;;;;;;;1.58;1.20;;;;;;;7.89;77.81;94406.00;5009063;28;20033;-74
2021/10/10 06:19:45;;;;;;;1.23;1.08;;;;;;;7.92;77.74;94402.81;4998444;28;20202;-71
2021/10/10 06:22:11;;;;;;;1.00;0.93;;;;;;;7.84;77.92;94404.19;5006370;28;20748;-72
2021/10/10 06:24:37;;;;;;;0.88;0.88;;;;;;;7.91;77.71;94398.56;5006825;28;20053;-72
2021/10/10 06:27:10;;;;;;;1.13;1.00;;;;;;;7.97;78.09;94413.34;5008083;28;20380;-72
2021/10/10 06:29:36;;;;;;;0.80;0.80;;;;;;;7.95;77.99;94420.78;5011719;28;20038;-72
2021/10/10 06:32:01;;;;;;;0.73;0.73;;;;;;;8.07;78.19;94423.84;5012468;28;20045;-70
2021/10/10 06:34:27;;;;;;;0.70;0.70;;;;;;;7.93;78.31;94418.41;5011217;28;20025;-71
2021/10/10 06:36:54;;;;;;;0.93;0.88;;;;;;;8.22;77.90;94415.69;5010423;28;20045;-74
2021/10/10 06:39:19;;;;;;;1.73;1.00;;;;;;;8.29;77.35;94418.78;5008665;28;20041;-73
2021/10/10 06:41:46;;;;;;;1.35;1.30;;;;;;;8.24;77.43;94407.47;5012233;28;20143;-70
2021/10/10 06:44:11;;;;;;;2.25;1.20;;;;;;;8.27;77.15;94414.84;5010240;28;20033;-71
2021/10/10 06:46:37;;;;;;;1.30;1.20;;;;;;;8.14;77.50;94401.22;5008561;28;20036;-71
2021/10/10 06:49:02;;;;;;;1.00;0.90;;;;;;;8.21;77.37;94416.78;5015569;28;20044;-72
2021/10/10 06:51:28;;;;;;;0.80;0.80;;;;;;;7.93;78.33;94428.19;5013902;28;20045;-71
2021/10/10 06:53:54;;;;;;;1.05;1.00;;;;;;;8.03;78.24;94397.09;5005178;28;20812;-72
2021/10/10 06:56:19;;;;;;;0.80;0.80;;;;;;;8.00;78.09;94424.16;5011705;28;20040;-71
2021/10/10 06:58:44;;;;;;;1.50;1.20;;;;;;;7.66;78.78;94400.38;5009054;28;20040;-71
2021/10/10 07:01:16;;;;;;;1.83;1.20;;;;;;;7.84;79.01;94420.09;5014413;28;20797;-71
2021/10/10 07:03:42;;;;;;;1.48;1.35;;;;;;;7.77;79.78;94421.50;5012994;28;20033;-72
2021/10/10 07:06:08;;;;;;;1.42;1.33;;;;;;;7.83;79.76;94423.78;5011675;28;20100;-72
2021/10/10 07:08:34;;;;;;;1.60;1.20;;;;;;;7.67;79.76;94398.53;5013188;28;20052;-71
2021/10/10 07:11:00;;;;;;;3.63;1.73;;;;;;;7.49;80.17;94404.50;5013612;28;20034;-71
2021/10/10 07:13:25;;;;;;;2.08;1.60;;;;;;;7.71;80.35;94428.66;5014332;28;20017;-72
2021/10/10 07:15:53;;;;;;;2.17;1.90;;;;;;;7.73;80.26;94428.44;5012200;28;20091;-70
2021/10/10 07:18:24;;;;;;;2.47;2.03;;;;;;;7.73;79.81;94427.34;5013574;28;20052;-74
2021/10/10 07:21:17;;;;;;;2.55;1.98;;;;;;;7.83;79.81;94433.59;5015595;28;20428;-70
2021/10/10 07:26:28;;;;;;;;;;;;;;;7.58;80.77;94437.28;5024200;28;20621;-72
2021/10/10 07:28:53;;;;;;;3.05;1.95;;;;;;;7.76;80.14;94439.25;5011947;28;20364;-73
2021/10/10 07:31:19;;;;;;;3.50;2.20;;;;;;;7.69;79.67;94428.94;5016293;28;20029;-72
2021/10/10 07:33:44;;;;;;;3.70;2.55;;;;;;;7.94;79.64;94450.97;5013210;28;20100;-73
2021/10/10 07:36:10;;;;;;;3.38;1.75;;;;;;;7.83;78.75;94436.25;5017284;28;20057;-73
2021/10/10 07:38:36;;;;;;;3.17;2.13;;;;;;;8.09;78.36;94454.25;5012895;28;20041;-73
2021/10/10 07:41:03;;;;;;;3.63;2.35;;;;;;;8.39;78.18;94458.44;5018415;28;20049;-73
2021/10/10 07:43:30;;;;;;;3.53;1.90;;;;;;;8.40;77.37;94446.75;5013645;28;20039;-72
2021/10/10 07:46:05;;;;;;;2.67;2.20;;;;;;;8.37;77.39;94455.25;5012133;28;20081;-71
2021/10/10 07:48:31;;;;;;;3.20;2.30;;;;;;;8.32;77.37;94441.28;5010996;28;20039;-73
2021/10/10 07:50:57;;;;;;;5.20;2.17;;;;;;;8.65;76.54;94472.19;5009834;28;20033;-71
2021/10/10 07:53:22;;;;;;;3.08;1.90;;;;;;;8.46;76.57;94456.22;5009220;28;20056;-72
2021/10/10 07:55:47;;;;;;;2.45;1.88;;;;;;;8.65;76.19;94450.16;5010617;28;20599;-73
2021/10/10 07:58:15;;;;;;;2.72;2.08;;;;;;;8.71;75.85;94464.91;5015985;28;20912;-73
2021/10/10 08:00:40;;;;;;;3.15;2.42;;;;;;;8.82;75.54;94469.81;5014358;28;20728;-71
2021/10/10 08:03:05;;;;;;;3.20;2.40;;;;;;;8.93;74.75;94473.91;5014808;28;20038;-71
2021/10/10 08:05:41;;;;;;;3.95;2.63;;;;;;;8.87;75.11;94477.72;5012098;28;20574;-71
2021/10/10 08:08:07;;;;;;;2.97;2.53;;;;;;;8.98;74.52;94475.72;5008238;28;20034;-74
2021/10/10 08:10:33;;;;;;;3.78;2.67;;;;;;;8.99;74.39;94453.41;5011494;28;20721;-73
2021/10/10 08:12:58;;;;;;;3.65;2.65;;;;;;;9.29;73.88;94468.91;5016768;28;20036;-71
2021/10/10 08:15:24;;;;;;;3.35;2.17;;;;;;;9.40;75.15;94472.97;5008013;28;20053;-71
2021/10/10 08:17:49;;;;;;;4.07;2.92;;;;;;;9.54;74.09;94472.25;5011064;28;20045;-73
2021/10/10 08:20:15;;;;;;;3.55;2.67;;;;;;;9.44;73.45;94473.19;5011612;28;20519;-73
2021/10/10 08:22:47;;;;;;;4.47;2.85;;;;;;;9.65;72.53;94478.97;5010848;28;20032;-73
2021/10/10 08:25:14;;;;;;;4.00;2.92;;;;;;;9.61;72.08;94477.97;5002770;28;20072;-73
2021/10/10 08:27:42;;;;;;;4.28;2.90;;;;;;;9.22;73.16;94471.16;5010086;28;20042;-72
2021/10/10 08:30:12;;;;;;;2.70;2.33;;;;;;;8.94;73.92;94451.63;5012968;28;20152;-73
2021/10/10 08:32:38;;;;;;;8.27;2.92;;;;;;;9.20;73.54;94465.31;5010131;28;20072;-72
2021/10/10 08:35:05;;;;;;;3.80;2.50;;;;;;;9.09;73.89;94450.63;5011835;28;20079;-72
2021/10/10 08:37:31;;;;;;;4.10;3.10;;;;;;;9.24;73.16;94458.34;5011094;28;20534;-71
2021/10/10 08:39:56;;;;;;;5.25;2.60;;;;;;;9.22;73.58;94467.69;5013414;28;20049;-71
2021/10/10 08:42:30;;;;;;;3.67;2.25;;;;;;;9.02;74.07;94460.78;5010113;28;20373;-71
2021/10/10 08:45:04;;;;;;;4.68;2.67;;;;;;;8.98;74.48;94446.53;5011598;28;20526;-72
2021/10/10 08:47:31;;;;;;;4.40;2.38;;;;;;;9.07;74.47;94452.75;5011685;28;20034;-71
2021/10/10 08:49:57;;;;;;;3.95;2.42;;;;;;;8.87;74.60;94453.84;5009996;28;20087;-72
2021/10/10 08:52:23;;;;;;;3.97;2.75;;;;;;;8.70;75.09;94426.22;5012507;28;20388;-72
2021/10/10 08:54:52;;;;;;;3.33;2.25;;;;;;;8.91;75.20;94448.72;5012102;28;20080;-74
2021/10/10 08:57:18;;;;;;;4.07;2.63;;;;;;;8.96;75.66;94446.81;5009782;28;20396;-71
2021/10/10 08:59:50;;;;;;;4.07;2.38;;;;;;;8.93;75.77;94449.25;5013655;28;21000;-71
2021/10/10 09:02:20;;;;;;;3.28;2.33;;;;;;;9.03;76.72;94444.59;5011523;28;20042;-71
2021/10/10 09:04:46;;;;;;;5.95;2.65;;;;;;;9.14;76.05;94439.16;5014666;28;20626;-71
2021/10/10 09:07:17;;;;;;;3.33;2.33;;;;;;;8.69;76.29;94438.69;5010429;28;20426;-71
2021/10/10 09:09:43;;;;;;;2.35;2.13;;;;;;;8.94;75.58;94432.25;5008619;28;20037;-71
2021/10/10 09:12:12;;;;;;;3.58;2.60;;;;;;;8.69;76.02;94443.22;5006683;28;20298;-71
2021/10/10 09:14:51;;;;;;;2.85;2.13;;;;;;;8.56;76.20;94437.53;5011147;28;20115;-70
2021/10/10 09:17:23;;;;;;;2.90;1.92;;;;;;;8.57;76.88;94444.41;5011407;28;20058;-72
2021/10/10 09:19:52;;;;;;;2.53;2.00;;;;;;;8.72;76.71;94440.78;5009267;28;20049;-69
2021/10/10 09:22:20;;;;;;;2.15;1.67;;;;;;;8.85;75.90;94434.00;5001156;28;20030;-73
2021/10/10 09:24:47;;;;;;;4.88;2.03;;;;;;;8.89;76.06;94424.38;5010182;28;20414;-73
2021/10/10 09:27:16;;;;;;;3.00;2.50;;;;;;;8.82;76.19;94440.63;5013128;28;20037;-72
2021/10/10 09:29:44;;;;;;;3.50;2.28;;;;;;;8.93;76.41;94420.84;5011395;28;20037;-73
2021/10/10 09:32:12;;;;;;;3.00;2.20;;;;;;;8.97;76.35;94442.28;5008947;28;20037;-72
2021/10/10 09:34:39;;;;;;;3.17;2.00;;;;;;;8.94;76.61;94432.25;5011754;28;20021;-71
2021/10/10 09:37:43;;;;;;;3.45;2.50;;;;;;;8.96;76.36;94435.41;5006545;28;20502;-69
2021/10/10 09:40:23;;;;;;;4.93;3.08;;;;;;;9.02;75.96;94437.69;5007456;28;20049;-71
2021/10/10 09:42:51;;;;;;;6.32;2.70;;;;;;;9.06;76.20;94443.22;5008502;28;20062;-73
2021/10/10 09:45:17;;;;;;;3.25;2.58;;;;;;;8.82;75.68;94434.53;5011521;28;20037;-70
2021/10/10 09:47:51;;;;;;;3.45;2.10;;;;;;;8.73;76.37;94433.59;5002463;28;20049;-73
2021/10/10 09:50:16;;;;;;;2.80;2.38;;;;;;;9.05;75.43;94433.66;5003081;28;20124;-70
2021/10/10 09:52:42;;;;;;;2.20;2.00;;;;;;;9.10;75.49;94417.69;5006663;28;20491;-71
2021/10/10 09:55:10;;;;;;;4.35;2.13;;;;;;;9.22;75.22;94439.28;5010372;28;20017;-69
2021/10/10 09:57:45;;;;;;;2.42;2.15;;;;;;;9.29;74.10;94423.78;5001281;28;20029;-72
2021/10/10 10:00:37;;;;;;;2.17;1.98;;;;;;;9.64;73.70;94435.69;5007605;28;20033;-71
2021/10/10 10:03:07;;;;;;;3.10;2.15;;;;;;;9.74;72.68;94434.72;5009563;28;20044;-73
2021/10/10 10:05:33;;;;;;;2.28;1.90;;;;;;;9.54;72.51;94430.53;5012501;28;20045;-73
2021/10/10 10:08:00;;;;;;;2.63;2.17;;;;;;;9.42;73.04;94420.41;5005790;28;20233;-72
2021/10/10 10:10:28;;;;;;;2.05;1.85;;;;;;;9.68;72.91;94430.59;5009696;28;20029;-72
2021/10/10 10:12:55;;;;;;;2.50;2.28;;;;;;;9.63;72.20;94423.50;5013411;28;20042;-71
2021/10/10 10:15:29;;;;;;;2.15;2.00;;;;;;;9.52;72.62;94432.72;5008133;28;20037;-71
2021/10/10 10:17:56;;;;;;;2.47;2.20;;;;;;;9.28;73.24;94429.41;5009122;28;20502;-71
2021/10/10 10:20:23;;;;;;;2.17;1.90;;;;;;;9.28;73.47;94416.13;5011192;28;20544;-71
2021/10/10 10:22:52;;;;;;;3.05;2.10;;;;;;;9.42;73.43;94411.66;5002649;28;22583;-71
2021/10/10 10:25:19;;;;;;;2.42;2.15;;;;;;;9.06;73.45;94418.53;5011437;28;20722;-70
2021/10/10 10:27:44;;;;;;;2.63;1.90;;;;;;;8.67;75.44;94401.06;5006227;28;20049;-73
2021/10/10 10:30:10;;;;;;;2.50;2.30;;;;;;;8.75;75.17;94413.69;5011193;28;20041;-71
2021/10/10 10:32:36;;;;;;;2.55;2.15;;;;;;;9.09;75.35;94421.44;5014908;28;20408;-72
2021/10/10 10:35:14;;;;;;;2.60;2.28;;;;;;;9.10;75.22;94425.63;5019363;28;20628;-71
2021/10/10 10:37:43;;;;;;;5.13;2.30;;;;;;;9.08;75.10;94433.13;5010496;28;20029;-71
2021/10/10 10:40:14;;;;;;;2.95;2.17;;;;;;;8.99;75.27;94425.03;5009139;28;20087;-71
2021/10/10 10:42:43;;;;;;;3.10;2.20;;;;;;;9.01;74.61;94425.50;5000015;28;20038;-74
2021/10/10 10:45:32;;;;;;;1.77;1.60;;;;;;;8.83;75.07;94428.97;5007410;28;20045;-71
2021/10/10 10:48:27;;;;;;;3.25;2.25;;;;;;;9.00;74.92;94420.47;5001505;28;20041;-73
2021/10/10 10:51:14;;;;;;;4.95;1.65;;;;;;;9.15;74.64;94416.84;5005845;28;20042;-72
2021/10/10 10:53:40;;;;;;;1.50;1.40;;;;;;;8.91;74.12;94385.06;5002033;28;20037;-72
2021/10/10 10:56:05;;;;;;;2.13;1.70;;;;;;;8.59;75.00;94394.56;5010491;28;20887;-71
2021/10/10 10:58:45;;;;;;;3.15;1.90;;;;;;;8.68;75.79;94413.25;5000023;28;20034;-73
2021/10/10 11:01:11;;;;;;;3.13;1.95;;;;;;;8.98;75.48;94412.81;5011056;28;20466;-70
2021/10/10 11:03:36;;;;;;;1.83;1.42;;;;;;;8.82;75.22;94387.59;5009321;28;20045;-73
2021/10/10 11:06:04;;;;;;;3.20;2.05;;;;;;;8.76;75.05;94409.94;4998954;28;20039;-71
2021/10/10 11:08:43;;;;;;;1.92;1.77;;;;;;;8.59;75.16;94359.28;5004859;28;20033;-72
2021/10/10 11:11:17;;;;;;;3.08;2.60;;;;;;;8.63;75.68;94383.38;5010086;28;20030;-72
2021/10/10 11:13:42;;;;;;;4.70;2.40;;;;;;;8.83;75.83;94409.59;5003405;28;20029;-71
2021/10/10 11:16:28;;;;;;;3.38;2.45;;;;;;;8.80;75.91;94410.19;5011440;28;20044;-70
2021/10/10 11:19:08;;;;;;;3.10;2.30;;;;;;;8.58;75.46;94403.56;5003347;28;20061;-72
2021/10/10 11:21:38;;;;;;;2.72;2.00;;;;;;;8.33;76.03;94373.94;5013622;28;20050;-69
2021/10/10 11:24:07;;;;;;;2.42;2.00;;;;;;;8.52;76.11;94403.91;5010093;28;20045;-72
2021/10/10 11:26:38;;;;;;;4.32;2.20;;;;;;;8.47;76.41;94396.81;5009331;28;20430;-73
2021/10/10 11:29:09;;;;;;;4.43;2.05;;;;;;;8.59;76.53;94391.09;5009543;28;20411;-72
2021/10/10 11:31:36;;;;;;;4.18;2.55;;;;;;;8.72;76.17;94392.25;5010145;28;20026;-70
2021/10/10 11:34:11;;;;;;;4.30;2.42;;;;;;;8.64;76.08;94385.75;5008611;28;20065;-72
2021/10/10 11:36:48;;;;;;;3.63;2.65;;;;;;;8.77;75.61;94392.19;4997356;28;20922;-72
2021/10/10 11:39:16;;;;;;;4.30;2.30;;;;;;;8.70;76.14;94384.59;5008325;28;20037;-72
2021/10/10 11:41:44;;;;;;;2.85;1.88;;;;;;;8.51;76.06;94381.16;5008300;28;20037;-71
2021/10/10 11:44:15;;;;;;;3.28;2.38;;;;;;;8.63;75.78;94392.09;5006403;28;20050;-71
2021/10/10 11:46:41;;;;;;;5.05;2.45;;;;;;;8.78;76.57;94386.59;5001918;28;20086;-70